Time;durP1;ratioP1;P1;durP2;ratioP2;P2;SDS_P1;SDS_P2;PMS_P1;PMS_P2;Temp;Humidity;BMP_temperature;BMP_pressure;BME280_temperature;BME280_humidity;BME280_pressure;Samples;Min_cycle;Max_cycle;Signal;HPM_P1;HPM_P2
2023/04/17 00:00:42;;;;;;;;;9.00;6.50;;;;;13.26;44.41;102053.16;5068623;27;45179;-67
2023/04/17 00:03:10;;;;;;;;;8.50;8.25;;;;;13.22;44.92;102052.25;5058259;28;45410;-69
2023/04/17 00:05:37;;;;;;;;;4.50;4.50;;;;;13.28;45.08;102062.00;5058046;28;45578;-70
2023/04/17 00:08:02;;;;;;;;;7.00;6.00;;;;;13.24;44.94;102047.91;5057052;27;45520;-72
2023/04/17 00:10:28;;;;;;;;;6.00;6.00;;;;;13.15;44.50;102030.25;5053579;28;45477;-71
2023/04/17 00:12:53;;;;;;;;;6.25;5.00;;;;;13.23;44.70;102039.97;5053203;28;45866;-66
2023/04/17 00:15:19;;;;;;;;;4.00;4.00;;;;;13.21;44.52;102042.59;5053363;27;45473;-68
2023/04/17 00:17:44;;;;;;;;;4.33;4.00;;;;;13.27;45.05;102052.31;5053593;27;46040;-69
2023/04/17 00:20:11;;;;;;;;;4.00;3.00;;;;;13.25;44.82;102043.53;5056640;28;45789;-67
2023/04/17 00:22:37;;;;;;;;;5.00;3.00;;;;;13.21;44.41;102034.69;5078788;27;45296;-68
2023/04/17 00:25:03;;;;;;;;;4.33;4.00;;;;;13.19;45.15;102028.53;5077926;27;45401;-69
2023/04/17 00:27:29;;;;;;;;;4.50;4.00;;;;;13.18;44.68;102028.53;5073350;27;45534;-71
2023/04/17 00:29:54;;;;;;;;;4.25;4.25;;;;;13.04;46.06;102029.22;5073493;27;45251;-68
2023/04/17 00:32:20;;;;;;;;;4.00;4.00;;;;;12.94;45.97;102033.50;5089238;27;45736;-70
2023/04/17 00:34:46;;;;;;;;;4.50;4.00;;;;;12.94;46.11;102043.13;5089736;27;45497;-68
2023/04/17 00:37:11;;;;;;;;;5.00;4.25;;;;;12.91;45.84;102033.47;5077082;27;46594;-67
2023/04/17 00:39:37;;;;;;;;;6.00;5.25;;;;;12.95;45.79;102034.38;5075578;27;45483;-68
2023/04/17 00:42:02;;;;;;;;;5.00;5.00;;;;;12.74;46.33;102011.31;5073695;27;45372;-67
2023/04/17 00:44:28;;;;;;;;;6.00;4.00;;;;;12.76;46.72;102040.25;5073877;27;45323;-66
2023/04/17 00:46:54;;;;;;;;;5.00;5.00;;;;;12.65;46.13;102013.84;5075151;27;45575;-65
2023/04/17 00:49:21;;;;;;;;;5.50;4.00;;;;;12.71;46.24;102020.03;5077946;27;45456;-67
2023/04/17 00:51:47;;;;;;;;;4.00;4.00;;;;;12.70;46.59;102010.41;5077163;28;45498;-68
2023/04/17 00:54:13;;;;;;;;;4.50;4.50;;;;;12.78;46.43;102015.75;5073830;27;45389;-69
2023/04/17 00:56:41;;;;;;;;;5.50;5.00;;;;;12.80;46.28;102010.53;5073300;28;45405;-66
2023/04/17 00:59:11;;;;;;;;;5.00;3.50;;;;;12.83;46.24;102021.06;5083007;27;45531;-70
2023/04/17 01:01:36;;;;;;;;;5.00;5.00;;;;;12.53;46.40;102004.03;5057000;28;45421;-67
2023/04/17 01:04:04;;;;;;;;;7.00;5.25;;;;;12.51;46.69;102011.00;5057695;27;45411;-69
2023/04/17 01:06:30;;;;;;;;;3.00;3.00;;;;;12.43;47.43;101999.47;5054722;28;47793;-68
2023/04/17 01:08:56;;;;;;;;;4.25;4.00;;;;;12.44;47.56;102001.25;5054061;27;45681;-72
2023/04/17 01:11:22;;;;;;;;;5.25;5.25;;;;;12.19;47.85;101968.47;5053828;27;45476;-68
2023/04/17 01:13:49;;;;;;;;;4.75;4.00;;;;;12.18;48.19;102001.75;5052796;27;45454;-67
2023/04/17 01:16:15;;;;;;;;;3.75;3.75;;;;;12.21;48.23;102000.91;5051392;28;46792;-68
2023/04/17 01:18:41;;;;;;;;;4.50;4.50;;;;;12.25;47.58;102003.63;5055796;27;45620;-67
2023/04/17 01:21:07;;;;;;;;;6.75;5.50;;;;;12.30;47.87;101999.31;5065348;27;45456;-68
2023/04/17 01:23:53;;;;;;;;;5.25;5.00;;;;;12.40;47.53;102000.31;5076522;27;45328;-70
2023/04/17 01:26:21;;;;;;;;;4.25;4.25;;;;;12.45;47.52;102006.53;5090776;27;46682;-70
2023/04/17 01:28:51;;;;;;;;;9.50;6.00;;;;;12.49;47.72;102000.47;5060838;27;45490;-70
2023/04/17 01:31:17;;;;;;;;;4.50;4.50;;;;;12.40;47.82;101992.44;5073925;27;45433;-70
2023/04/17 01:33:43;;;;;;;;;8.00;7.00;;;;;12.45;47.71;102003.91;5070031;28;45901;-70
2023/04/17 01:36:12;;;;;;;;;3.00;3.00;;;;;12.47;48.04;102004.81;5075967;27;45383;-71
2023/04/17 01:38:38;;;;;;;;;9.00;8.00;;;;;12.38;47.77;101988.91;5091732;27;45498;-67
2023/04/17 01:41:08;;;;;;;;;6.00;6.00;;;;;12.41;47.55;101996.84;5061355;27;45552;-70
2023/04/17 01:43:45;;;;;;;;;5.25;5.25;;;;;12.34;48.36;101987.13;5076726;27;46072;-69
2023/04/17 01:46:11;;;;;;;;;6.75;5.50;;;;;12.39;48.33;102001.19;5092549;27;46773;-70
2023/04/17 01:48:37;;;;;;;;;9.75;6.25;;;;;12.32;48.22;102001.97;5076655;27;45531;-68
2023/04/17 01:51:03;;;;;;;;;10.25;9.25;;;;;12.19;49.05;102010.50;5075497;27;45697;-71
2023/04/17 01:53:32;;;;;;;;;6.50;5.50;;;;;12.18;48.93;102001.75;5074416;27;45615;-70
2023/04/17 01:56:01;;;;;;;;;5.25;5.25;;;;;12.24;48.20;102008.81;5077355;27;47645;-71
2023/04/17 01:58:27;;;;;;;;;5.00;5.00;;;;;12.27;48.43;102001.03;5061883;27;45386;-70
2023/04/17 02:00:52;;;;;;;;;6.00;5.25;;;;;12.29;47.85;101999.28;5075996;27;45436;-66
2023/04/17 02:03:18;;;;;;;;;9.25;6.00;;;;;12.19;48.56;101982.50;5075505;27;45422;-68
2023/04/17 02:05:45;;;;;;;;;6.00;6.00;;;;;12.34;48.55;102016.00;5075448;27;46058;-68
2023/04/17 02:08:11;;;;;;;;;9.75;7.00;;;;;12.32;48.32;102006.34;5075762;28;45540;-68
2023/04/17 02:10:36;;;;;;;;;5.00;5.00;;;;;12.33;48.30;102008.97;5091318;27;45316;-68
2023/04/17 02:13:02;;;;;;;;;6.75;6.75;;;;;12.30;48.58;102011.56;5075574;27;45607;-70
2023/04/17 02:16:08;;;;;;;;;5.25;5.00;;;;;11.92;49.09;101968.94;5076084;27;45632;-71
2023/04/17 02:18:50;;;;;;;;;9.00;6.50;;;;;12.14;49.32;102013.06;5053482;27;45848;-67
2023/04/17 02:21:16;;;;;;;;;6.00;6.00;;;;;12.20;48.63;102010.53;5075429;27;45461;-70
2023/04/17 02:23:49;;;;;;;;;6.00;6.00;;;;;12.17;48.81;101994.75;5078447;27;45523;-69
2023/04/17 02:26:15;;;;;;;;;9.75;6.75;;;;;12.06;48.58;101985.81;5075266;27;45409;-68
2023/04/17 02:28:58;;;;;;;;;7.00;6.75;;;;;12.13;48.69;101998.19;5075777;27;45556;-75
2023/04/17 02:31:23;;;;;;;;;9.50;7.25;;;;;12.01;48.65;101980.47;5062549;27;45570;-71
2023/04/17 02:34:19;;;;;;;;;9.00;7.25;;;;;11.91;49.46;101989.03;5069292;28;45393;-72
2023/04/17 02:36:47;;;;;;;;;7.75;7.00;;;;;11.98;49.34;102004.06;5063263;28;46941;-71
2023/04/17 02:39:13;;;;;;;;;9.25;6.00;;;;;12.00;49.74;102001.44;5075486;27;45399;-69
2023/04/17 02:41:38;;;;;;;;;4.75;4.75;;;;;11.99;49.44;101981.31;5077195;27;45675;-69
2023/04/17 02:44:04;;;;;;;;;5.50;5.00;;;;;12.05;48.96;101989.28;5075689;27;45484;-68
2023/04/17 02:46:29;;;;;;;;;5.00;5.00;;;;;12.09;49.42;101991.97;5073618;27;46695;-69
2023/04/17 02:48:55;;;;;;;;;7.75;6.25;;;;;12.11;49.60;101989.38;5076482;27;45346;-68
2023/04/17 02:51:21;;;;;;;;;7.25;6.25;;;;;12.18;49.37;101995.63;5069091;28;46017;-67
2023/04/17 02:53:48;;;;;;;;;5.75;5.75;;;;;12.19;49.45;101995.63;5077393;27;45536;-66
2023/04/17 02:56:13;;;;;;;;;6.00;6.00;;;;;12.17;49.43;101991.22;5076260;27;46064;-68
2023/04/17 02:58:43;;;;;;;;;9.25;8.75;;;;;12.20;49.87;102000.03;5074316;27;45540;-67
2023/04/17 03:01:10;;;;;;;;;8.25;8.25;;;;;12.22;49.57;101997.41;5094728;27;45299;-68
2023/04/17 03:03:37;;;;;;;;;10.50;8.25;;;;;12.13;49.48;101982.41;5077392;28;45444;-68
2023/04/17 03:06:03;;;;;;;;;3.75;3.75;;;;;12.15;49.09;101978.06;5074921;27;45471;-69
2023/04/17 03:08:28;;;;;;;;;8.25;7.50;;;;;12.19;49.81;101993.00;5074414;27;45716;-67
2023/04/17 03:10:54;;;;;;;;;4.75;4.75;;;;;12.22;49.41;101995.69;5074664;27;45733;-66
2023/04/17 03:13:21;;;;;;;;;10.50;6.50;;;;;12.25;50.04;101997.47;5073928;27;45429;-68
2023/04/17 03:15:46;;;;;;;;;9.00;8.50;;;;;12.15;49.41;101978.06;5072730;28;46680;-67
2023/04/17 03:18:12;;;;;;;;;9.00;8.50;;;;;12.17;49.58;101978.97;5074298;27;45511;-68
2023/04/17 03:20:37;;;;;;;;;8.75;7.50;;;;;12.27;49.37;101996.66;5074257;27;45334;-67
2023/04/17 03:23:03;;;;;;;;;11.00;8.50;;;;;12.27;50.01;101999.28;5074085;27;45689;-68
2023/04/17 03:25:30;;;;;;;;;8.25;5.00;;;;;12.19;49.64;101987.75;5074108;27;45599;-67
2023/04/17 03:27:55;;;;;;;;;7.25;7.00;;;;;12.25;49.96;101994.84;5072345;27;45585;-67
2023/04/17 03:30:21;;;;;;;;;10.25;9.50;;;;;12.23;50.08;101988.69;5059882;28;45435;-67
2023/04/17 03:32:46;;;;;;;;;11.25;7.75;;;;;12.20;50.31;101981.66;5077605;27;45405;-67
2023/04/17 03:35:12;;;;;;;;;6.25;6.25;;;;;12.11;49.83;101965.75;5076837;28;47966;-68
2023/04/17 03:37:37;;;;;;;;;9.25;8.25;;;;;12.07;49.22;101956.03;5078341;27;45315;-71
2023/04/17 03:40:05;;;;;;;;;13.25;7.50;;;;;12.18;49.78;101972.84;5074690;28;45453;-68
2023/04/17 03:42:30;;;;;;;;;8.75;8.75;;;;;12.15;49.93;101992.94;5073673;27;45477;-68
2023/04/17 03:44:56;;;;;;;;;12.00;11.25;;;;;11.87;51.00;101993.38;5076213;27;47107;-67
2023/04/17 03:47:22;;;;;;;;;16.50;11.25;;;;;11.75;50.90;101979.13;5078220;27;45368;-69
2023/04/17 03:49:47;;;;;;;;;11.50;9.75;;;;;11.75;51.05;101989.63;5077122;27;45461;-67
2023/04/17 03:52:13;;;;;;;;;6.75;6.25;;;;;11.82;50.94;102000.25;5075912;27;45453;-68
2023/04/17 03:54:39;;;;;;;;;18.25;10.75;;;;;11.89;50.87;102001.28;5073715;27;46289;-68
2023/04/17 03:57:04;;;;;;;;;11.25;9.50;;;;;11.99;50.48;102010.19;5089017;27;45621;-67
2023/04/17 03:59:34;;;;;;;;;11.75;10.75;;;;;12.01;51.04;102003.22;5074818;27;45320;-68
2023/04/17 04:02:00;;;;;;;;;11.00;10.00;;;;;11.97;50.74;101990.91;5077199;28;45510;-69
2023/04/17 04:04:26;;;;;;;;;13.25;13.25;;;;;12.08;50.70;102016.47;5074331;27;45645;-68
2023/04/17 04:06:53;;;;;;;;;18.00;13.50;;;;;12.00;50.99;102002.31;5073264;27;45447;-67
2023/04/17 04:09:19;;;;;;;;;9.75;9.75;;;;;12.05;50.67;102013.81;5073366;27;45662;-70
2023/04/17 04:11:44;;;;;;;;;12.75;10.50;;;;;12.05;50.82;102008.56;5073340;27;45378;-71
2023/04/17 04:14:10;;;;;;;;;13.75;10.50;;;;;12.01;50.37;101997.97;5090186;27;45679;-68
2023/04/17 04:16:35;;;;;;;;;18.25;9.50;;;;;12.13;50.77;102007.81;5075256;28;45484;-69
2023/04/17 04:19:01;;;;;;;;;10.00;9.25;;;;;12.06;50.34;101994.56;5077968;27;45544;-67
2023/04/17 04:21:27;;;;;;;;;17.00;12.25;;;;;12.10;50.71;101998.09;5078468;27;45441;-69
2023/04/17 04:23:55;;;;;;;;;17.75;13.50;;;;;12.18;50.65;102008.75;5084380;27;47466;-68
2023/04/17 04:26:20;;;;;;;;;15.75;14.50;;;;;12.14;51.20;102012.19;5073977;27;45540;-68
2023/04/17 04:28:46;;;;;;;;;8.75;7.50;;;;;12.19;50.57;102015.75;5090019;27;45505;-68
2023/04/17 04:31:17;;;;;;;;;13.50;13.50;;;;;12.21;50.49;102014.03;5072410;28;45528;-68
2023/04/17 04:33:43;;;;;;;;;11.00;9.50;;;;;12.20;50.86;102014.91;5100334;27;47613;-70
2023/04/17 04:36:12;;;;;;;;;15.25;11.25;;;;;12.22;51.17;102016.72;5088673;27;45366;-67
2023/04/17 04:38:39;;;;;;;;;19.25;18.75;;;;;12.23;51.09;102021.09;5073743;27;45488;-67
2023/04/17 04:41:09;;;;;;;;;16.00;14.75;;;;;12.09;51.35;102015.59;5071929;27;45872;-67
2023/04/17 04:43:35;;;;;;;;;15.75;12.00;;;;;12.06;51.69;102007.69;5073044;28;46303;-66
2023/04/17 04:46:01;;;;;;;;;18.50;14.75;;;;;12.14;52.01;102027.94;5088359;27;45413;-69
2023/04/17 04:48:27;;;;;;;;;18.75;14.75;;;;;12.15;51.34;102027.97;5075985;27;45444;-69
2023/04/17 04:50:54;;;;;;;;;12.75;12.00;;;;;12.07;51.44;102009.44;5092995;27;46017;-71
2023/04/17 04:53:20;;;;;;;;;15.50;14.75;;;;;12.15;51.29;102017.47;5113416;27;46819;-71
2023/04/17 04:55:45;;;;;;;;;14.25;11.50;;;;;12.11;51.72;102007.75;5076643;27;45362;-70
2023/04/17 04:58:11;;;;;;;;;16.50;15.00;;;;;12.21;51.41;102035.06;5092006;27;45543;-67
2023/04/17 05:00:37;;;;;;;;;16.50;12.75;;;;;12.11;51.42;102013.03;5071827;27;45603;-67
2023/04/17 05:03:02;;;;;;;;;16.75;15.50;;;;;12.20;51.48;102030.69;5070936;27;45610;-71
2023/04/17 05:05:28;;;;;;;;;17.75;15.50;;;;;12.15;51.44;102020.09;5080790;27;45423;-71
2023/04/17 05:07:54;;;;;;;;;16.50;15.25;;;;;12.20;51.82;102023.69;5080152;27;45938;-68
2023/04/17 05:10:19;;;;;;;;;14.75;14.50;;;;;12.22;51.31;102023.69;5080174;27;45488;-69
2023/04/17 05:12:45;;;;;;;;;17.50;15.75;;;;;12.23;51.72;102030.72;5079199;27;45481;-68
2023/04/17 05:15:11;;;;;;;;;21.50;19.00;;;;;12.19;51.76;102032.41;5091840;27;45455;-67
2023/04/17 05:17:37;;;;;;;;;18.25;16.25;;;;;12.03;51.53;102005.03;5074501;27;45444;-68
2023/04/17 05:20:08;;;;;;;;;18.25;16.50;;;;;12.19;51.73;102021.88;5092526;27;45490;-67
2023/04/17 05:22:34;;;;;;;;;19.75;16.75;;;;;12.04;52.27;102004.16;5054583;27;47908;-68
2023/04/17 05:25:00;;;;;;;;;20.50;16.75;;;;;12.23;52.02;102028.97;5065323;27;45489;-69
2023/04/17 05:27:25;;;;;;;;;21.25;18.50;;;;;12.18;52.20;102017.50;5054735;27;45533;-68
2023/04/17 05:29:51;;;;;;;;;32.75;22.00;;;;;12.23;51.99;102026.34;5069992;27;45538;-67
2023/04/17 05:32:17;;;;;;;;;25.50;24.00;;;;;12.07;52.28;101998.94;5076429;27;46325;-67
2023/04/17 05:34:42;;;;;;;;;24.75;20.50;;;;;12.22;52.27;102019.34;5076482;27;45445;-69
2023/04/17 05:37:08;;;;;;;;;17.25;15.00;;;;;12.29;52.06;102036.06;5079402;27;45460;-68
2023/04/17 05:39:33;;;;;;;;;19.75;16.25;;;;;12.17;52.40;102009.59;5074253;27;45365;-68
2023/04/17 05:42:00;;;;;;;;;28.00;21.50;;;;;12.28;52.32;102029.03;5091437;27;45448;-68
2023/04/17 05:44:25;;;;;;;;;16.50;14.75;;;;;12.24;52.73;102028.13;5076414;27;45508;-67
2023/04/17 05:46:51;;;;;;;;;20.25;19.00;;;;;12.20;52.43;102014.91;5075935;27;45536;-69
2023/04/17 05:49:17;;;;;;;;;26.50;21.00;;;;;12.30;52.49;102028.19;5094590;27;45555;-71
2023/04/17 05:51:42;;;;;;;;;25.75;20.50;;;;;12.25;52.52;102019.38;5086901;27;46758;-69
2023/04/17 05:54:08;;;;;;;;;20.25;18.25;;;;;12.29;52.97;102022.91;5076171;27;45440;-68
2023/04/17 05:56:33;;;;;;;;;33.50;26.25;;;;;12.27;52.50;102022.91;5075909;27;45398;-67
2023/04/17 05:58:59;;;;;;;;;26.75;22.00;;;;;12.23;53.31;102021.09;5076484;27;45511;-68
2023/04/17 06:01:25;;;;;;;;;27.25;20.75;;;;;12.21;53.21;102021.94;5075795;27;45382;-68
2023/04/17 06:03:51;;;;;;;;;25.00;21.50;;;;;12.33;53.27;102037.00;5074645;27;45463;-67
2023/04/17 06:06:17;;;;;;;;;25.25;22.75;;;;;12.30;53.04;102036.09;5074803;27;45427;-71
2023/04/17 06:08:42;;;;;;;;;26.00;21.50;;;;;12.32;53.12;102037.88;5075101;27;45801;-71
2023/04/17 06:11:08;;;;;;;;;22.75;20.75;;;;;12.32;53.34;102038.75;5080771;27;47737;-67
2023/04/17 06:13:33;;;;;;;;;20.00;19.25;;;;;12.32;53.50;102030.88;5075098;27;45692;-70
2023/04/17 06:15:59;;;;;;;;;30.25;27.00;;;;;12.38;53.30;102046.72;5075838;27;45462;-71
2023/04/17 06:18:25;;;;;;;;;29.75;26.00;;;;;12.12;54.20;102027.91;5090912;27;45512;-68
2023/04/17 06:20:50;;;;;;;;;35.00;31.25;;;;;11.95;55.05;102046.00;5074959;28;45659;-67
2023/04/17 06:23:16;;;;;;;;;27.25;25.50;;;;;11.81;55.52;102047.47;5079040;27;45613;-70
2023/04/17 06:25:42;;;;;;;;;29.25;24.00;;;;;11.75;55.76;102040.38;5079691;27;45412;-69
2023/04/17 06:28:07;;;;;;;;;24.50;23.25;;;;;11.75;55.35;102034.25;5093081;27;45372;-67
2023/04/17 06:30:33;;;;;;;;;33.50;29.00;;;;;11.78;55.69;102034.31;5060743;27;45792;-68
2023/04/17 06:32:58;;;;;;;;;35.50;27.75;;;;;11.68;56.21;102044.63;5091111;27;45890;-72
2023/04/17 06:35:24;;;;;;;;;29.75;26.00;;;;;11.57;56.51;102040.03;5075055;27;45472;-69
2023/04/17 06:37:49;;;;;;;;;33.50;30.75;;;;;11.58;56.94;102044.41;5073630;27;45481;-70
2023/04/17 06:40:15;;;;;;;;;32.00;25.25;;;;;11.49;57.06;102033.78;5077525;28;45437;-70
2023/04/17 06:42:40;;;;;;;;;29.00;21.00;;;;;11.66;56.55;102048.09;5073194;27;45426;-70
2023/04/17 06:45:07;;;;;;;;;24.50;22.25;;;;;11.66;56.23;102034.97;5076029;27;45349;-69
2023/04/17 06:47:32;;;;;;;;;28.00;26.00;;;;;11.80;56.55;102050.97;5066795;27;45446;-71
2023/04/17 06:49:58;;;;;;;;;27.75;21.50;;;;;11.88;56.02;102050.25;5077007;28;46413;-71
2023/04/17 06:52:25;;;;;;;;;32.25;27.75;;;;;11.93;56.42;102052.09;5072995;28;45451;-67
2023/04/17 06:54:52;;;;;;;;;32.25;25.25;;;;;12.01;56.26;102055.75;5072804;27;45443;-69
2023/04/17 06:57:18;;;;;;;;;24.00;19.25;;;;;12.06;56.18;102067.22;5075032;27;45840;-71
2023/04/17 06:59:43;;;;;;;;;23.00;22.25;;;;;11.90;55.82;102028.41;5075061;27;46503;-71
2023/04/17 07:02:10;;;;;;;;;32.50;25.75;;;;;12.07;56.40;102050.59;5074329;27;45469;-68
2023/04/17 07:04:35;;;;;;;;;26.25;24.50;;;;;12.12;55.70;102062.03;5093560;27;45420;-68
2023/04/17 07:07:01;;;;;;;;;32.25;23.25;;;;;12.21;56.09;102067.47;5078177;27;45282;-68
2023/04/17 07:09:26;;;;;;;;;29.25;27.00;;;;;12.26;55.95;102070.16;5090163;27;45580;-67
2023/04/17 07:11:52;;;;;;;;;30.25;26.50;;;;;12.26;56.29;102064.91;5074102;28;45241;-67
2023/04/17 07:14:18;;;;;;;;;38.50;28.25;;;;;12.33;55.74;102074.66;5108701;27;45519;-70
2023/04/17 07:16:44;;;;;;;;;32.75;27.75;;;;;12.30;56.00;102075.50;5074323;27;45432;-68
2023/04/17 07:19:10;;;;;;;;;44.50;33.50;;;;;12.29;56.54;102075.44;5089845;27;47558;-68
2023/04/17 07:21:36;;;;;;;;;34.75;30.50;;;;;12.25;56.28;102071.03;5090111;27;45417;-69
2023/04/17 07:24:01;;;;;;;;;33.50;29.00;;;;;12.39;56.12;102089.66;5089883;27;45521;-68
2023/04/17 07:26:27;;;;;;;;;33.25;31.75;;;;;12.39;55.92;102089.66;5090467;27;45437;-68
2023/04/17 07:28:52;;;;;;;;;42.50;36.00;;;;;12.42;56.50;102084.44;5073061;27;45524;-69
2023/04/17 07:31:18;;;;;;;;;37.25;29.25;;;;;12.33;56.08;102077.28;5058930;28;45436;-70
2023/04/17 07:33:44;;;;;;;;;45.00;33.25;;;;;12.40;56.47;102096.66;5083394;27;45451;-69
2023/04/17 07:36:12;;;;;;;;;38.50;31.75;;;;;12.40;56.66;102094.03;5072105;27;45673;-69
2023/04/17 07:38:38;;;;;;;;;31.25;29.25;;;;;12.44;56.14;102093.22;5073954;27;45539;-69
2023/04/17 07:41:04;;;;;;;;;40.00;29.00;;;;;12.39;56.63;102090.53;5071885;28;45609;-68
2023/04/17 07:43:30;;;;;;;;;37.50;32.50;;;;;12.45;56.47;102092.34;5089813;27;45339;-70
2023/04/17 07:45:57;;;;;;;;;46.75;34.50;;;;;12.36;56.67;102081.69;5074126;27;45555;-67
2023/04/17 07:48:23;;;;;;;;;34.50;31.00;;;;;12.44;56.46;102095.88;5089981;27;46741;-69
2023/04/17 07:50:49;;;;;;;;;38.25;32.75;;;;;12.50;56.53;102091.59;5077960;28;45489;-67
2023/04/17 07:53:19;;;;;;;;;38.75;31.00;;;;;12.51;56.21;102101.22;5078651;27;45472;-68
2023/04/17 07:55:44;;;;;;;;;42.00;30.75;;;;;12.49;56.07;102092.44;5078500;27;46018;-67
2023/04/17 07:58:10;;;;;;;;;39.50;33.50;;;;;12.42;56.86;102092.31;5077886;27;45507;-68
2023/04/17 08:00:37;;;;;;;;;38.25;30.75;;;;;12.48;56.64;102103.81;5078203;27;45286;-67
2023/04/17 08:03:03;;;;;;;;;35.25;30.00;;;;;12.41;56.61;102090.53;5077121;28;45345;-71
2023/04/17 08:05:29;;;;;;;;;48.25;36.50;;;;;12.50;57.13;102106.44;5074247;28;45397;-70
2023/04/17 08:07:54;;;;;;;;;45.50;36.00;;;;;12.36;57.87;102103.59;5073483;27;45778;-69
2023/04/17 08:10:20;;;;;;;;;43.50;33.75;;;;;12.25;57.83;102103.44;5072049;28;45390;-68
2023/04/17 08:12:45;;;;;;;;;42.50;35.00;;;;;12.20;57.75;102109.47;5075424;27;45441;-68
2023/04/17 08:15:11;;;;;;;;;46.00;33.75;;;;;12.17;58.06;102105.06;5076355;27;45433;-72
2023/04/17 08:17:37;;;;;;;;;46.75;36.75;;;;;12.17;58.65;102101.53;5092977;27;45706;-71
2023/04/17 08:20:10;;;;;;;;;51.50;37.75;;;;;11.98;58.39;102095.06;5076475;27;45390;-68
2023/04/17 08:22:40;;;;;;;;;48.00;35.00;;;;;12.01;58.88;102100.41;5073647;28;45689;-69
2023/04/17 08:25:08;;;;;;;;;44.75;37.50;;;;;11.95;59.00;102087.13;5073371;27;45378;-69
2023/04/17 08:27:43;;;;;;;;;49.50;36.00;;;;;11.88;59.04;102084.38;5083336;27;45439;-70
2023/04/17 08:30:12;;;;;;;;;51.25;36.75;;;;;11.75;59.24;102061.38;5067878;27;45661;-68
2023/04/17 08:32:41;;;;;;;;;48.00;35.00;;;;;12.01;59.08;102105.66;5111610;27;45401;-69
2023/04/17 08:35:12;;;;;;;;;11.75;9.25;;;;;12.02;58.77;102094.28;5100656;27;45413;-69
2023/04/17 08:37:38;;;;;;;;;42.00;32.50;;;;;12.14;59.03;102097.09;5081234;27;45717;-68
2023/04/17 08:40:07;;;;;;;;;35.25;29.75;;;;;12.19;58.76;102097.19;5078694;27;45486;-68
2023/04/17 08:42:36;;;;;;;;;33.75;30.75;;;;;12.37;58.44;102104.50;5095851;27;45491;-69
2023/04/17 08:45:06;;;;;;;;;49.25;38.50;;;;;12.36;58.53;102098.34;5080958;27;45410;-68
2023/04/17 08:47:33;;;;;;;;;46.50;35.75;;;;;12.44;58.55;102103.75;5082080;27;47958;-71
2023/04/17 08:50:10;;;;;;;;;49.25;34.75;;;;;12.47;58.05;102096.78;5081490;27;45704;-69
2023/04/17 08:52:44;;;;;;;;;54.00;40.50;;;;;12.48;58.21;102095.03;5079284;27;45754;-68
2023/04/17 08:55:15;;;;;;;;;49.25;39.00;;;;;12.52;58.22;102097.72;5079920;27;45704;-68
2023/04/17 08:58:00;;;;;;;;;48.75;36.00;;;;;12.68;57.62;102100.59;5099668;27;46237;-68
2023/04/17 09:00:33;;;;;;;;;40.50;33.75;;;;;12.77;57.55;102095.50;5084138;27;45486;-67
2023/04/17 09:03:00;;;;;;;;;47.50;35.75;;;;;12.96;57.38;102099.28;5081416;27;45756;-69
2023/04/17 09:05:32;;;;;;;;;54.75;37.25;;;;;13.03;56.94;102095.88;5080363;27;45562;-68
2023/04/17 09:08:14;;;;;;;;;52.50;39.00;;;;;13.12;56.41;102098.63;5083319;27;45506;-68
2023/04/17 09:10:52;;;;;;;;;43.75;35.75;;;;;13.22;56.39;102096.13;5084188;27;45593;-68
2023/04/17 09:13:20;;;;;;;;;48.25;37.50;;;;;13.24;55.85;102086.47;5081303;27;45676;-68
2023/04/17 09:16:02;;;;;;;;;49.50;36.50;;;;;13.44;55.79;102092.03;5078835;27;45418;-68
2023/04/17 09:18:30;;;;;;;;;49.00;38.50;;;;;13.49;55.52;102085.94;5097686;27;47940;-68
2023/04/17 09:20:58;;;;;;;;;49.25;39.00;;;;;13.39;56.81;102099.84;5079989;27;45430;-69
2023/04/17 09:23:24;;;;;;;;;53.00;40.00;;;;;13.43;56.34;102100.75;5077780;27;45433;-69
2023/04/17 09:26:13;;;;;;;;;52.00;39.00;;;;;13.41;56.21;102084.97;5095233;27;45890;-73
2023/04/17 09:28:42;;;;;;;;;58.50;46.75;;;;;13.40;56.01;102079.69;5079173;27;46059;-73
2023/04/17 09:31:17;;;;;;;;;50.25;39.25;;;;;13.55;59.14;102088.66;5065315;27;45418;-70
2023/04/17 09:34:06;;;;;;;;;44.00;35.75;;;;;13.78;57.67;102094.13;5080651;27;45475;-71
2023/04/17 09:36:37;;;;;;;;;44.00;33.00;;;;;13.72;56.94;102066.88;5074868;27;45547;-73
2023/04/17 09:39:19;;;;;;;;;39.50;30.50;;;;;13.87;57.34;102080.19;5075552;27;45562;-72
2023/04/17 09:41:46;;;;;;;;;39.50;34.75;;;;;14.06;58.08;102089.16;5077853;27;45668;-72
2023/04/17 09:44:24;;;;;;;;;39.00;33.00;;;;;14.16;56.69;102088.34;5080472;27;45424;-71
2023/04/17 09:46:52;;;;;;;;;31.75;28.00;;;;;14.13;57.05;102069.91;5076893;27;45708;-67
2023/04/17 09:49:33;;;;;;;;;46.75;37.00;;;;;14.31;55.82;102089.38;5073911;27;45679;-70
2023/04/17 09:51:59;;;;;;;;;44.00;35.50;;;;;14.23;55.19;102076.13;5080091;27;45496;-68
2023/04/17 09:54:25;;;;;;;;;43.00;36.75;;;;;14.18;55.67;102080.47;5080263;27;45365;-69
2023/04/17 09:56:54;;;;;;;;;49.75;37.75;;;;;14.21;56.00;102073.50;5077687;27;45328;-71
2023/04/17 09:59:22;;;;;;;;;46.25;36.00;;;;;14.20;54.84;102074.34;5075916;27;45389;-69
2023/04/17 10:01:49;;;;;;;;;44.00;34.50;;;;;14.15;57.48;102077.81;5074245;27;45543;-70
2023/04/17 10:04:14;;;;;;;;;42.75;33.00;;;;;14.24;55.56;102082.25;5075334;27;45800;-69
2023/04/17 10:06:40;;;;;;;;;52.00;38.50;;;;;14.14;55.61;102079.59;5075509;27;45687;-69
2023/04/17 10:09:07;;;;;;;;;48.25;36.50;;;;;14.09;55.61;102077.75;5077525;27;45409;-69
2023/04/17 10:11:40;;;;;;;;;56.00;39.50;;;;;14.08;55.18;102078.66;5091979;27;45364;-68
2023/04/17 10:14:21;;;;;;;;;50.50;40.00;;;;;14.10;54.74;102088.31;5090623;27;45601;-68
2023/04/17 10:16:47;;;;;;;;;53.25;38.75;;;;;14.07;54.97;102085.66;5075343;27;45766;-69
2023/04/17 10:19:34;;;;;;;;;44.75;34.75;;;;;13.91;55.15;102063.56;5092415;27;47607;-69
2023/04/17 10:22:17;;;;;;;;;46.75;38.25;;;;;14.10;55.26;102092.72;5076273;27;45772;-68
2023/04/17 10:24:44;;;;;;;;;43.75;35.00;;;;;14.10;54.85;102077.78;5073769;28;45483;-70
2023/04/17 10:27:41;;;;;;;;;49.25;37.50;;;;;14.21;54.71;102077.84;5078866;27;45314;-68
2023/04/17 10:30:12;;;;;;;;;54.50;38.75;;;;;14.28;54.83;102074.41;5054926;27;46817;-67
2023/04/17 10:32:40;;;;;;;;;47.50;36.25;;;;;14.28;55.19;102084.06;5072670;27;45787;-68
2023/04/17 10:35:15;;;;;;;;;49.00;34.75;;;;;14.27;54.63;102082.31;5075181;27;45529;-71
2023/04/17 10:37:49;;;;;;;;;38.75;33.75;;;;;14.25;55.14;102082.28;5075251;27;45436;-68
2023/04/17 10:40:30;;;;;;;;;42.75;34.25;;;;;14.21;55.04;102077.84;5075258;28;45753;-72
2023/04/17 10:43:03;;;;;;;;;50.25;37.75;;;;;14.18;55.08;102077.84;5090857;27;45568;-68
2023/04/17 10:46:01;;;;;;;;;47.75;36.25;;;;;14.15;55.10;102069.91;5074828;27;45499;-70
2023/04/17 10:48:28;;;;;;;;;47.50;36.50;;;;;14.14;54.91;102068.13;5064332;27;45393;-68
2023/04/17 10:51:03;;;;;;;;;46.75;38.00;;;;;14.16;55.32;102056.75;5077908;27;45511;-70
2023/04/17 10:54:05;;;;;;;;;47.75;36.75;;;;;14.25;55.24;102069.13;5074762;27;45844;-73
2023/04/17 10:56:47;;;;;;;;;49.75;39.00;;;;;14.27;54.91;102071.78;5041997;27;45514;-72
2023/04/17 10:59:19;;;;;;;;;47.50;36.75;;;;;14.27;54.56;102066.50;5090289;27;45658;-69
2023/04/17 11:01:47;;;;;;;;;56.75;39.75;;;;;14.23;54.39;102075.25;5074639;27;45474;-70
2023/04/17 11:04:27;;;;;;;;;47.75;38.75;;;;;14.09;54.72;102062.81;5074846;27;45561;-70
2023/04/17 11:06:54;;;;;;;;;47.00;38.75;;;;;14.02;55.23;102055.75;5089695;27;45618;-68
2023/04/17 11:09:26;;;;;;;;;52.50;39.25;;;;;14.09;54.77;102068.09;5086507;27;45882;-72
2023/04/17 11:11:53;;;;;;;;;52.00;34.50;;;;;14.16;54.81;102066.41;5054333;27;46347;-74
2023/04/17 11:14:25;;;;;;;;;44.00;36.50;;;;;14.17;54.49;102045.34;5062912;28;45394;-74
2023/04/17 11:16:55;;;;;;;;;43.50;36.00;;;;;14.28;54.38;102055.94;5060071;27;45734;-70
2023/04/17 11:19:23;;;;;;;;;49.50;34.25;;;;;14.35;53.72;102043.72;5053086;28;45579;-68